Time;durP1;ratioP1;P1;durP2;ratioP2;P2;SDS_P1;SDS_P2;PMS_P1;PMS_P2;Temp;Humidity;BMP_temperature;BMP_pressure;BME280_temperature;BME280_humidity;BME280_pressure;Samples;Min_cycle;Max_cycle;Signal;HPM_P1;HPM_P2
2021/04/23 00:00:25;;;;;;;6.57;4.25;;;308.10;2304.00;;;;;;5092993;28;20032;-67
2021/04/23 00:02:54;;;;;;;6.00;4.20;;;308.10;2304.00;;;;;;5088697;28;20058;-68
2021/04/23 00:05:20;;;;;;;6.32;4.57;;;308.10;2304.00;;;;;;5093346;28;20485;-68
2021/04/23 00:07:46;;;;;;;6.85;4.90;;;308.00;2304.00;;;;;;5093573;28;20035;-68
2021/04/23 00:10:15;;;;;;;7.20;4.65;;;307.90;2304.00;;;;;;5092723;28;20035;-70
2021/04/23 00:12:41;;;;;;;8.45;4.57;;;307.90;2304.00;;;;;;5093515;28;20020;-68
2021/04/23 00:15:12;;;;;;;6.90;4.47;;;307.80;2304.00;;;;;;5093280;28;20121;-71
2021/04/23 00:17:39;;;;;;;6.60;4.10;;;307.80;2304.00;;;;;;5093190;28;20150;-68
2021/04/23 00:20:24;;;;;;;6.70;3.85;;;307.90;2304.00;;;;;;5092948;28;20170;-68
2021/04/23 00:22:49;;;;;;;6.72;4.18;;;308.00;2304.00;;;;;;5093039;28;20477;-71
2021/04/23 00:25:25;;;;;;;7.50;4.53;;;308.00;2304.00;;;;;;5092958;28;20031;-68
2021/04/23 00:27:52;;;;;;;7.45;4.35;;;308.00;2304.00;;;;;;5092977;28;20024;-69
2021/04/23 00:30:19;;;;;;;7.25;4.03;;;308.00;2304.00;;;;;;5092948;28;20160;-68
2021/04/23 00:32:54;;;;;;;7.47;4.15;;;308.10;2304.00;;;;;;5092973;28;20023;-67
2021/04/23 00:35:25;;;;;;;14.27;7.20;;;308.00;2304.00;;;;;;5093355;28;20047;-68
2021/04/23 00:37:53;;;;;;;19.58;8.88;;;308.00;2304.00;;;;;;5092777;28;20055;-69
2021/04/23 00:40:35;;;;;;;18.13;9.95;;;307.90;2304.00;;;;;;5088640;28;20047;-68
2021/04/23 00:43:01;;;;;;;14.48;7.70;;;307.90;2304.00;;;;;;5092655;28;20095;-69
2021/04/23 00:45:29;;;;;;;12.70;7.43;;;307.90;2304.00;;;;;;5092778;28;20024;-68
2021/04/23 00:47:58;;;;;;;11.82;7.32;;;307.90;2304.00;;;;;;5092350;28;20027;-68
2021/04/23 00:50:46;;;;;;;11.13;7.47;;;307.90;2304.00;;;;;;5092323;28;20511;-69
2021/04/23 00:53:18;;;;;;;10.50;6.68;;;307.90;2304.00;;;;;;5074431;28;20032;-69
2021/04/23 00:55:44;;;;;;;8.88;6.22;;;307.90;2304.00;;;;;;5092636;28;20047;-68
2021/04/23 00:58:13;;;;;;;8.30;6.03;;;307.90;2304.00;;;;;;5092095;28;20052;-68
2021/04/23 01:00:41;;;;;;;8.88;5.00;;;307.90;2304.00;;;;;;5091508;28;20024;-68
2021/04/23 01:03:09;;;;;;;7.00;4.68;;;307.80;2304.00;;;;;;5087175;28;20534;-68
2021/04/23 01:05:36;;;;;;;8.20;4.88;;;307.90;2304.00;;;;;;5092301;28;20032;-68
2021/04/23 01:08:02;;;;;;;8.65;4.90;;;307.80;2304.00;;;;;;5076968;28;20048;-67
2021/04/23 01:10:28;;;;;;;8.55;5.15;;;307.80;2304.00;;;;;;5071612;28;20032;-69
2021/04/23 01:12:55;;;;;;;8.65;5.10;;;307.80;2304.00;;;;;;5071892;28;20493;-71
2021/04/23 01:15:20;;;;;;;7.80;5.20;;;307.80;2304.00;;;;;;5071934;28;20489;-68
2021/04/23 01:17:46;;;;;;;10.68;5.57;;;307.80;2304.00;;;;;;5071588;28;20025;-68
2021/04/23 01:20:13;;;;;;;7.95;5.22;;;307.80;2304.00;;;;;;5071693;28;20032;-68
2021/04/23 01:22:39;;;;;;;8.38;5.30;;;307.80;2304.00;;;;;;5071620;28;20021;-68
2021/04/23 01:25:06;;;;;;;8.25;5.20;;;307.80;2304.00;;;;;;5071578;28;20032;-68
2021/04/23 01:27:32;;;;;;;7.45;4.85;;;307.80;2304.00;;;;;;5071468;28;20028;-68
2021/04/23 01:29:58;;;;;;;8.65;4.85;;;307.80;2304.00;;;;;;5071389;28;20032;-69
2021/04/23 01:32:24;;;;;;;8.02;5.80;;;307.80;2304.00;;;;;;5071605;28;20074;-69
2021/04/23 01:34:50;;;;;;;7.88;5.20;;;307.80;2304.00;;;;;;5071647;28;20029;-68
2021/04/23 01:37:16;;;;;;;8.50;5.10;;;307.70;2304.00;;;;;;5071558;28;20032;-68
2021/04/23 01:39:43;;;;;;;8.73;5.47;;;307.70;2304.00;;;;;;5071084;28;20542;-68
2021/04/23 01:42:11;;;;;;;9.40;5.70;;;307.60;2304.00;;;;;;5071109;28;20026;-71
2021/04/23 01:44:38;;;;;;;8.00;5.22;;;307.60;2304.00;;;;;;5071135;28;20028;-68
2021/04/23 01:47:06;;;;;;;8.68;4.65;;;307.50;2304.00;;;;;;5053328;28;20059;-68
2021/04/23 01:49:32;;;;;;;6.72;4.32;;;307.40;2304.00;;;;;;5070847;28;20032;-68
2021/04/23 01:52:11;;;;;;;9.10;4.72;;;307.40;2304.00;;;;;;5070971;28;20037;-68
2021/04/23 01:54:37;;;;;;;6.85;4.50;;;307.40;2304.00;;;;;;5071261;28;20012;-68
2021/04/23 01:57:04;;;;;;;6.13;4.28;;;307.30;2304.00;;;;;;5070997;28;20028;-68
2021/04/23 01:59:31;;;;;;;6.15;4.43;;;307.30;2304.00;;;;;;5053149;28;20477;-68
2021/04/23 02:01:58;;;;;;;6.38;4.32;;;307.30;2304.00;;;;;;5071010;28;20131;-71
2021/04/23 02:04:25;;;;;;;6.55;4.65;;;307.30;2304.00;;;;;;5071414;28;20103;-69
2021/04/23 02:06:51;;;;;;;8.35;5.10;;;307.30;2304.00;;;;;;5070857;28;20039;-67
2021/04/23 02:09:17;;;;;;;5.82;4.25;;;307.30;2304.00;;;;;;5070683;28;20028;-68
2021/04/23 02:11:45;;;;;;;6.85;4.20;;;307.20;2304.00;;;;;;5070938;28;20024;-69
2021/04/23 02:14:11;;;;;;;7.18;4.97;;;307.30;2304.00;;;;;;5070560;28;20016;-68
2021/04/23 02:16:37;;;;;;;7.85;5.20;;;282.50;2278.40;;;;;;5071056;28;20023;-68
2021/04/23 02:19:07;;;;;;;7.15;5.20;;;282.40;2278.40;;;;;;5070580;28;20024;-68
2021/04/23 02:21:35;;;;;;;7.82;5.55;;;282.30;2278.40;;;;;;5070963;28;20021;-68
2021/04/23 02:24:03;;;;;;;7.30;5.07;;;282.30;2278.40;;;;;;5070783;28;20028;-67
2021/04/23 02:26:29;;;;;;;8.15;5.18;;;282.20;2278.40;;;;;;5070882;28;20078;-68
2021/04/23 02:28:55;;;;;;;8.32;5.28;;;282.20;2278.40;;;;;;5070344;28;20017;-68
2021/04/23 02:31:24;;;;;;;7.32;5.32;;;282.20;2278.40;;;;;;5070811;28;20016;-67
2021/04/23 02:33:53;;;;;;;7.50;5.10;;;282.20;2278.40;;;;;;5070591;28;20420;-68
2021/04/23 02:36:19;;;;;;;6.57;4.40;;;282.10;2278.40;;;;;;5070602;28;20021;-67
2021/04/23 02:38:45;;;;;;;7.35;5.03;;;282.00;2278.40;;;;;;5070351;28;20016;-67
2021/04/23 02:41:12;;;;;;;8.45;5.43;;;282.00;2278.40;;;;;;5070406;28;20432;-68
2021/04/23 02:43:42;;;;;;;7.28;5.25;;;282.00;2278.40;;;;;;5070667;28;20029;-68
2021/04/23 02:46:09;;;;;;;6.47;4.63;;;282.00;2278.40;;;;;;5070325;28;20082;-68
2021/04/23 02:48:38;;;;;;;8.07;5.38;;;282.00;2278.40;;;;;;5070330;28;20040;-67
2021/04/23 02:51:08;;;;;;;7.60;4.97;;;282.10;2278.40;;;;;;5070220;28;20044;-67
2021/04/23 02:53:34;;;;;;;8.40;5.53;;;282.20;2278.40;;;;;;5070416;28;20545;-67
2021/04/23 02:56:01;;;;;;;7.97;5.32;;;282.30;2278.40;;;;;;5070483;28;20070;-67
2021/04/23 02:58:28;;;;;;;6.43;4.80;;;282.40;2278.40;;;;;;5070084;28;20148;-67
2021/04/23 03:00:57;;;;;;;7.47;5.18;;;282.40;2278.40;;;;;;5070095;28;20032;-67
2021/04/23 03:03:24;;;;;;;9.82;6.20;;;282.40;2278.40;;;;;;5070727;28;20078;-67
2021/04/23 03:05:50;;;;;;;8.32;5.45;;;282.20;2278.40;;;;;;5070471;28;20046;-67
2021/04/23 03:08:17;;;;;;;7.95;5.47;;;282.10;2278.40;;;;;;5070019;28;20023;-68
2021/04/23 03:10:54;;;;;;;7.97;5.85;;;282.20;2278.40;;;;;;5070122;28;20025;-69
2021/04/23 03:13:22;;;;;;;8.23;6.00;;;282.10;2278.40;;;;;;5070300;28;20016;-68
2021/04/23 03:15:49;;;;;;;11.75;9.07;;;282.00;2278.40;;;;;;5070167;28;20021;-68
2021/04/23 03:18:17;;;;;;;10.50;7.85;;;281.90;2278.40;;;;;;5070157;28;20051;-67
2021/04/23 03:20:43;;;;;;;10.50;7.18;;;281.90;2278.40;;;;;;5070181;28;20492;-69
2021/04/23 03:23:09;;;;;;;10.68;7.40;;;282.00;2278.40;;;;;;5072123;28;20020;-72
2021/04/23 03:25:36;;;;;;;9.95;7.13;;;282.00;2278.40;;;;;;5073908;28;20039;-68
2021/04/23 03:28:03;;;;;;;9.07;6.35;;;282.10;2278.40;;;;;;5074227;28;20024;-68
2021/04/23 03:30:32;;;;;;;8.43;5.80;;;282.10;2278.40;;;;;;5073369;28;20082;-67
2021/04/23 03:32:58;;;;;;;8.77;5.90;;;282.20;2278.40;;;;;;5073769;28;20028;-69
2021/04/23 03:35:25;;;;;;;8.30;6.03;;;282.10;2278.40;;;;;;5073303;28;20075;-68
2021/04/23 03:37:50;;;;;;;8.23;6.28;;;282.20;2278.40;;;;;;5055652;28;20385;-68
2021/04/23 03:40:20;;;;;;;9.60;6.03;;;282.00;2278.40;;;;;;5073592;28;20024;-68
2021/04/23 03:42:46;;;;;;;8.55;5.80;;;282.10;2278.40;;;;;;5073739;28;20477;-68
2021/04/23 03:45:17;;;;;;;8.10;5.93;;;282.20;2278.40;;;;;;5073449;28;20077;-67
2021/04/23 03:47:43;;;;;;;9.55;6.05;;;282.20;2278.40;;;;;;5073724;28;20028;-67
2021/04/23 03:50:11;;;;;;;12.20;7.68;;;282.20;2278.40;;;;;;5073112;28;20028;-67
2021/04/23 03:52:37;;;;;;;15.93;9.23;;;282.10;2278.40;;;;;;5073368;28;20110;-67
2021/04/23 03:55:10;;;;;;;11.52;7.18;;;282.00;2278.40;;;;;;5073341;28;20009;-68
2021/04/23 03:57:36;;;;;;;12.35;7.68;;;282.00;2278.40;;;;;;5055532;28;20385;-68
2021/04/23 04:00:07;;;;;;;14.93;7.97;;;282.00;2278.40;;;;;;5072833;28;20021;-67
2021/04/23 04:02:33;;;;;;;14.35;7.85;;;282.00;2278.40;;;;;;5073555;28;20400;-68
2021/04/23 04:04:59;;;;;;;13.50;7.15;;;282.20;2278.40;;;;;;5073076;28;20032;-72
2021/04/23 04:07:24;;;;;;;14.05;6.93;;;282.20;2278.40;;;;;;5073399;28;20491;-71
2021/04/23 04:09:50;;;;;;;12.60;6.65;;;282.20;2278.40;;;;;;5072912;28;20025;-70
2021/04/23 04:12:16;;;;;;;9.93;6.63;;;282.30;2278.40;;;;;;5073282;28;20020;-68
2021/04/23 04:14:41;;;;;;;10.23;6.72;;;282.40;2278.40;;;;;;5073162;28;20029;-68
2021/04/23 04:17:07;;;;;;;9.32;6.30;;;282.50;2278.40;;;;;;5072773;28;20400;-67
2021/04/23 04:19:33;;;;;;;8.20;5.97;;;282.50;2278.40;;;;;;5072705;28;20094;-68
2021/04/23 04:21:59;;;;;;;7.53;5.97;;;307.20;2304.00;;;;;;5072911;28;20025;-67
2021/04/23 04:24:25;;;;;;;9.35;6.00;;;307.20;2304.00;;;;;;5072932;28;20024;-68
2021/04/23 04:26:51;;;;;;;8.38;5.90;;;307.20;2304.00;;;;;;5072983;28;20559;-74
2021/04/23 04:29:18;;;;;;;10.55;6.82;;;307.20;2304.00;;;;;;5072525;28;20016;-68
2021/04/23 04:31:47;;;;;;;8.77;6.22;;;307.20;2304.00;;;;;;5072900;28;20477;-68
2021/04/23 04:34:13;;;;;;;9.75;7.03;;;307.20;2304.00;;;;;;5072348;28;20033;-68
2021/04/23 04:36:39;;;;;;;9.38;7.30;;;307.30;2304.00;;;;;;5072868;28;20109;-68
2021/04/23 04:39:05;;;;;;;12.32;7.43;;;307.30;2304.00;;;;;;5072260;28;20091;-69
2021/04/23 04:41:31;;;;;;;10.70;7.50;;;307.40;2304.00;;;;;;5072808;28;20413;-68
2021/04/23 04:43:57;;;;;;;10.73;7.75;;;307.40;2304.00;;;;;;5072522;28;20025;-68
2021/04/23 04:46:23;;;;;;;10.30;7.53;;;307.40;2304.00;;;;;;5072524;28;20096;-69
2021/04/23 04:48:49;;;;;;;11.27;8.15;;;307.40;2304.00;;;;;;5072148;28;20025;-69
2021/04/23 04:51:15;;;;;;;11.05;7.57;;;307.40;2304.00;;;;;;5054108;28;20051;-68
2021/04/23 04:53:41;;;;;;;11.15;8.50;;;307.40;2304.00;;;;;;5072593;28;20111;-71
2021/04/23 04:56:06;;;;;;;11.70;8.70;;;307.50;2304.00;;;;;;5072347;28;20059;-71
2021/04/23 04:58:34;;;;;;;12.15;9.13;;;307.60;2304.00;;;;;;5072117;28;20469;-72
2021/04/23 05:01:02;;;;;;;13.68;9.95;;;307.60;2304.00;;;;;;5066589;28;20074;-69
2021/04/23 05:03:28;;;;;;;14.30;9.95;;;307.60;2304.00;;;;;;5072165;28;20473;-70
2021/04/23 05:05:54;;;;;;;15.25;10.80;;;307.60;2304.00;;;;;;5072166;28;20039;-69
2021/04/23 05:08:20;;;;;;;17.52;11.40;;;307.70;2304.00;;;;;;5072015;28;20016;-68
2021/04/23 05:10:46;;;;;;;18.77;11.85;;;307.70;2304.00;;;;;;5071965;28;20032;-68
2021/04/23 05:13:12;;;;;;;18.52;12.55;;;307.70;2304.00;;;;;;5072000;28;20388;-69
2021/04/23 05:15:38;;;;;;;16.35;12.10;;;307.80;2304.00;;;;;;5062471;28;20057;-68
2021/04/23 05:18:04;;;;;;;18.05;12.43;;;307.90;2304.00;;;;;;5060388;28;20530;-68
2021/04/23 05:20:30;;;;;;;19.35;13.57;;;308.00;2304.00;;;;;;5071299;28;20362;-68
2021/04/23 05:22:56;;;;;;;20.85;14.27;;;308.10;2304.00;;;;;;5071649;28;20024;-70
2021/04/23 05:25:24;;;;;;;21.90;14.20;;;332.80;2329.60;;;;;;5071621;28;20082;-69
2021/04/23 05:27:50;;;;;;;20.20;13.82;;;332.80;2329.60;;;;;;5071614;28;20024;-70
2021/04/23 05:30:23;;;;;;;21.92;14.35;;;332.80;2329.60;;;;;;5071042;28;20024;-70
2021/04/23 05:32:49;;;;;;;21.30;14.75;;;308.10;2304.00;;;;;;5071489;28;20388;-68
2021/04/23 05:35:17;;;;;;;19.48;14.50;;;308.10;2304.00;;;;;;5071452;28;20016;-70
2021/04/23 05:37:44;;;;;;;22.95;17.30;;;332.80;2329.60;;;;;;5071570;28;20036;-70
2021/04/23 05:40:13;;;;;;;25.77;18.05;;;332.90;2329.60;;;;;;5070986;28;20069;-69
2021/04/23 05:42:38;;;;;;;23.38;16.33;;;333.00;2329.60;;;;;;5056361;28;20036;-70
2021/04/23 05:45:07;;;;;;;20.33;14.55;;;333.00;2329.60;;;;;;5065599;28;20028;-69
2021/04/23 05:47:33;;;;;;;21.38;14.75;;;333.00;2329.60;;;;;;5070673;28;20025;-69
2021/04/23 05:49:59;;;;;;;22.55;16.05;;;332.90;2329.60;;;;;;5070050;28;20024;-69
2021/04/23 05:52:24;;;;;;;24.52;16.42;;;332.80;2329.60;;;;;;5070375;28;20040;-68
2021/04/23 05:54:50;;;;;;;24.58;16.55;;;308.10;2304.00;;;;;;5070086;28;20059;-70
2021/04/23 05:57:16;;;;;;;25.63;16.17;;;308.00;2304.00;;;;;;5070355;28;20374;-69
2021/04/23 05:59:41;;;;;;;26.40;16.45;;;307.90;2304.00;;;;;;5070074;28;20099;-69
2021/04/23 06:02:08;;;;;;;25.38;16.02;;;307.90;2304.00;;;;;;5070004;28;20439;-69
2021/04/23 06:04:34;;;;;;;22.23;15.77;;;307.90;2304.00;;;;;;5059574;28;20037;-69
2021/04/23 06:07:00;;;;;;;22.10;15.50;;;307.90;2304.00;;;;;;5070337;28;20104;-70
2021/04/23 06:09:25;;;;;;;23.33;15.70;;;308.00;2304.00;;;;;;5070171;28;20051;-69
2021/04/23 06:11:51;;;;;;;21.25;14.90;;;308.10;2304.00;;;;;;5070238;28;20028;-69
2021/04/23 06:14:17;;;;;;;21.58;14.15;;;308.10;2304.00;;;;;;5070551;28;20024;-69
2021/04/23 06:16:43;;;;;;;21.88;14.48;;;308.10;2304.00;;;;;;5070185;28;20013;-69
2021/04/23 06:19:08;;;;;;;19.95;14.35;;;332.80;2329.60;;;;;;5069742;28;20044;-70
2021/04/23 06:21:34;;;;;;;20.20;12.95;;;332.90;2329.60;;;;;;5070267;28;20100;-69
2021/04/23 06:24:01;;;;;;;19.92;13.55;;;333.00;2329.60;;;;;;5070688;28;20449;-70
2021/04/23 06:26:27;;;;;;;19.60;13.25;;;333.10;2329.60;;;;;;5070252;28;20012;-70
2021/04/23 06:28:52;;;;;;;20.08;13.40;;;333.10;2329.60;;;;;;5070214;28;20039;-71
2021/04/23 06:31:20;;;;;;;19.63;13.65;;;333.20;2329.60;;;;;;5070299;28;20484;-70
2021/04/23 06:33:49;;;;;;;23.00;15.50;;;333.20;2329.60;;;;;;5070638;28;20048;-69
2021/04/23 06:36:15;;;;;;;21.63;14.65;;;333.30;2329.60;;;;;;5069812;28;20064;-69
2021/04/23 06:38:42;;;;;;;23.65;14.98;;;333.30;2304.00;;;;;;5069289;28;20028;-70
2021/04/23 06:41:08;;;;;;;21.40;13.80;;;333.40;2278.40;;;;;;5055125;28;20048;-70
2021/04/23 06:43:34;;;;;;;18.55;13.57;;;333.40;2227.20;;;;;;5062008;28;20032;-69
2021/04/23 06:46:00;;;;;;;19.80;13.70;;;333.40;2201.60;;;;;;5070194;28;20028;-69
2021/04/23 06:48:25;;;;;;;18.23;12.45;;;333.40;2176.00;;;;;;5069938;28;20025;-73
2021/04/23 06:50:52;;;;;;;22.45;14.25;;;333.50;2176.00;;;;;;5061157;28;20306;-70
2021/04/23 06:53:19;;;;;;;21.90;14.82;;;333.60;2150.40;;;;;;5065174;28;20055;-70
2021/04/23 06:55:46;;;;;;;19.45;12.93;;;358.40;2176.00;;;;;;5069153;28;20070;-68
2021/04/23 06:58:12;;;;;;;19.77;13.45;;;358.50;2124.80;;;;;;5070836;28;20568;-70
2021/04/23 07:00:40;;;;;;;21.80;13.07;;;358.60;2099.20;;;;;;5072561;28;20062;-70
2021/04/23 07:03:09;;;;;;;18.23;13.20;;;358.60;2124.80;;;;;;5072298;28;20021;-69
2021/04/23 07:05:35;;;;;;;20.60;12.52;;;358.50;2124.80;;;;;;5072328;28;20128;-69
2021/04/23 07:08:01;;;;;;;19.75;13.43;;;358.50;2124.80;;;;;;5072587;28;20063;-69
2021/04/23 07:10:29;;;;;;;21.67;13.50;;;358.70;2099.20;;;;;;5064451;28;20060;-69
2021/04/23 07:12:56;;;;;;;17.10;11.93;;;358.80;2073.60;;;;;;5072433;28;20016;-73
2021/04/23 07:15:24;;;;;;;18.67;12.38;;;359.00;2048.00;;;;;;5071931;28;20029;-69
2021/04/23 07:17:51;;;;;;;18.52;12.70;;;384.00;1971.20;;;;;;5071846;28;20021;-69
2021/04/23 07:20:18;;;;;;;19.50;12.82;;;384.20;1920.00;;;;;;5071480;28;20032;-69
2021/04/23 07:22:44;;;;;;;19.20;12.77;;;384.40;1920.00;;;;;;5072361;28;20431;-70
2021/04/23 07:25:11;;;;;;;16.63;12.10;;;384.30;1894.40;;;;;;5071972;28;20111;-68
2021/04/23 07:27:37;;;;;;;21.02;13.15;;;384.10;1894.40;;;;;;5072208;28;20017;-72
2021/04/23 07:30:08;;;;;;;33.78;20.25;;;384.10;1894.40;;;;;;5072187;28;20490;-69
2021/04/23 07:32:34;;;;;;;35.22;21.85;;;359.30;1920.00;;;;;;5072185;28;20135;-67
2021/04/23 07:35:00;;;;;;;21.98;14.60;;;384.00;1920.00;;;;;;5072262;28;20480;-68
2021/04/23 07:37:26;;;;;;;22.23;15.68;;;384.00;1945.60;;;;;;5072009;28;20036;-68
2021/04/23 07:39:52;;;;;;;19.52;14.05;;;359.30;1945.60;;;;;;5071971;28;20020;-68
2021/04/23 07:42:18;;;;;;;33.00;19.73;;;359.10;1971.20;;;;;;5072272;28;20366;-70
2021/04/23 07:44:44;;;;;;;23.13;14.93;;;359.10;1971.20;;;;;;5072432;28;20477;-68
2021/04/23 07:47:09;;;;;;;17.67;13.02;;;359.10;1971.20;;;;;;5072261;28;20031;-69
2021/04/23 07:49:36;;;;;;;20.02;13.27;;;359.20;1945.60;;;;;;5071864;28;20427;-67
2021/04/23 07:52:03;;;;;;;19.50;12.90;;;359.20;1945.60;;;;;;5049160;28;664873;-69
2021/04/23 07:54:29;;;;;;;18.52;12.68;;;359.30;1920.00;;;;;;5071035;28;20439;-71
2021/04/23 07:56:55;;;;;;;18.23;13.20;;;384.30;1894.40;;;;;;5073033;28;20070;-70
2021/04/23 07:59:21;;;;;;;19.83;13.13;;;384.80;1868.80;;;;;;5072849;28;20028;-69
2021/04/23 08:01:50;;;;;;;19.55;13.73;;;409.80;1843.20;;;;;;5069501;28;20024;-69
2021/04/23 08:04:16;;;;;;;20.00;14.13;;;410.20;1792.00;;;;;;5054903;28;20021;-70
2021/04/23 08:06:42;;;;;;;17.45;12.85;;;410.30;1766.40;;;;;;5063257;28;20017;-69
2021/04/23 08:09:08;;;;;;;18.00;13.02;;;435.60;1715.20;;;;;;5072071;28;20538;-70
2021/04/23 08:11:34;;;;;;;18.92;14.25;;;487.30;1587.20;;;;;;5057218;28;20017;-70
2021/04/23 08:13:59;;;;;;;16.90;12.18;;;538.00;1459.20;;;;;;5073226;28;20572;-70
2021/04/23 08:16:25;;;;;;;17.58;12.43;;;537.70;1433.60;;;;;;5072950;28;20047;-67
2021/04/23 08:18:53;;;;;;;16.23;12.05;;;512.80;1459.20;;;;;;5072395;28;20025;-67
2021/04/23 08:21:20;;;;;;;15.95;11.13;;;512.60;1433.60;;;;;;5054859;28;20458;-69
2021/04/23 08:23:47;;;;;;;15.23;12.32;;;537.60;1433.60;;;;;;5072823;28;20024;-69
2021/04/23 08:26:14;;;;;;;14.55;11.05;;;537.70;1408.00;;;;;;5072584;28;20020;-70
2021/04/23 08:28:40;;;;;;;15.98;10.60;;;538.30;1356.80;;;;;;5072584;28;20067;-73
2021/04/23 08:31:06;;;;;;;18.17;11.48;;;563.40;1331.20;;;;;;5072756;28;20048;-70
2021/04/23 08:33:31;;;;;;;13.48;9.80;;;538.30;1305.60;;;;;;5072639;28;20032;-69
2021/04/23 08:35:57;;;;;;;12.32;9.43;;;537.60;1356.80;;;;;;5072856;28;20081;-70
2021/04/23 08:38:24;;;;;;;13.18;9.60;;;512.50;1356.80;;;;;;5072389;28;20032;-69
2021/04/23 08:40:50;;;;;;;13.93;10.38;;;487.20;1382.40;;;;;;5072267;28;20420;-70
2021/04/23 08:43:16;;;;;;;14.63;9.55;;;487.00;1382.40;;;;;;5063639;28;20044;-69
2021/04/23 08:45:42;;;;;;;13.93;10.07;;;486.80;1356.80;;;;;;5064697;28;20028;-69
2021/04/23 08:48:08;;;;;;;15.70;9.57;;;486.40;1408.00;;;;;;5072039;28;20031;-70
2021/04/23 08:50:36;;;;;;;13.35;9.00;;;461.40;1433.60;;;;;;5072118;28;20416;-70
2021/04/23 08:53:02;;;;;;;13.98;9.15;;;461.50;1433.60;;;;;;5072131;28;20032;-69
2021/04/23 08:55:28;;;;;;;13.57;8.85;;;461.70;1433.60;;;;;;5072566;28;20098;-70
2021/04/23 08:57:54;;;;;;;13.23;8.27;;;487.00;1356.80;;;;;;5072243;28;20563;-70
2021/04/23 09:00:20;;;;;;;11.90;7.60;;;487.20;1331.20;;;;;;5071990;28;20074;-69
2021/04/23 09:02:46;;;;;;;12.15;7.43;;;487.10;1305.60;;;;;;5072215;28;20028;-73
2021/04/23 09:05:14;;;;;;;10.20;6.82;;;487.10;1331.20;;;;;;5065792;28;20032;-68
2021/04/23 09:07:40;;;;;;;12.60;8.43;;;487.00;1305.60;;;;;;5054846;28;20037;-67
2021/04/23 09:10:12;;;;;;;12.35;8.73;;;486.50;1280.00;;;;;;5056423;28;20020;-67
2021/04/23 09:12:39;;;;;;;11.32;8.10;;;486.40;1331.20;;;;;;5050676;28;20122;-68
2021/04/23 09:15:23;;;;;;;12.98;7.97;;;486.50;1331.20;;;;;;5051020;28;20097;-67
2021/04/23 09:18:07;;;;;;;12.00;8.18;;;486.90;1305.60;;;;;;5050778;28;20021;-70
2021/04/23 09:20:34;;;;;;;11.63;7.47;;;512.10;1254.40;;;;;;5049854;28;20568;-70
2021/04/23 09:23:21;;;;;;;11.20;7.32;;;512.10;1254.40;;;;;;5049577;28;20505;-74
2021/04/23 09:25:55;;;;;;;9.57;6.25;;;487.30;1228.80;;;;;;5032219;28;20021;-69
2021/04/23 09:28:39;;;;;;;10.40;6.40;;;487.30;1228.80;;;;;;5052436;28;20155;-69
2021/04/23 09:31:23;;;;;;;11.65;6.88;;;512.10;1254.40;;;;;;5052849;28;20054;-67
2021/04/23 09:33:51;;;;;;;10.35;6.85;;;512.40;1228.80;;;;;;5049836;28;20021;-66
2021/04/23 09:36:34;;;;;;;13.35;7.95;;;512.80;1203.20;;;;;;5051245;28;20021;-67
2021/04/23 09:39:14;;;;;;;11.10;6.82;;;537.70;1228.80;;;;;;5054761;28;20211;-68
2021/04/23 09:41:46;;;;;;;20.05;13.68;;;537.90;1228.80;;;;;;5052213;28;20563;-67
2021/04/23 09:44:28;;;;;;;11.70;8.35;;;537.80;1177.60;;;;;;5049761;28;20663;-67
2021/04/23 09:47:10;;;;;;;14.57;9.07;;;537.80;1228.80;;;;;;5048849;28;20021;-67
2021/04/23 09:49:36;;;;;;;18.15;12.18;;;537.80;1203.20;;;;;;5051468;28;20374;-68
2021/04/23 09:52:04;;;;;;;13.07;10.10;;;538.20;1228.80;;;;;;5049508;28;20497;-67
2021/04/23 09:54:30;;;;;;;17.35;7.20;;;538.50;1203.20;;;;;;5049839;28;20021;-68
2021/04/23 09:56:57;;;;;;;12.75;7.97;;;563.20;1228.80;;;;;;5049159;28;20025;-68
2021/04/23 09:59:28;;;;;;;11.23;7.43;;;538.50;1203.20;;;;;;5048518;28;20021;-66
2021/04/23 10:02:00;;;;;;;11.68;8.85;;;563.40;1203.20;;;;;;5050230;28;20507;-69
2021/04/23 10:04:32;;;;;;;17.83;12.85;;;563.80;1177.60;;;;;;5049822;28;20494;-67
2021/04/23 10:07:20;;;;;;;13.30;9.05;;;563.60;1177.60;;;;;;5051637;28;20493;-68
2021/04/23 10:10:04;;;;;;;10.93;7.80;;;563.30;1177.60;;;;;;5051171;28;20445;-73
2021/04/23 10:12:37;;;;;;;10.18;6.93;;;538.30;1177.60;;;;;;5065158;28;20021;-69
2021/04/23 10:15:06;;;;;;;12.75;8.73;;;538.20;1177.60;;;;;;5065696;28;20019;-68
2021/04/23 10:17:33;;;;;;;12.40;7.93;;;538.10;1177.60;;;;;;5065470;28;20021;-68
2021/04/23 10:19:59;;;;;;;12.68;7.05;;;512.90;1152.00;;;;;;5065079;28;20031;-68
2021/04/23 10:22:25;;;;;;;13.10;6.88;;;512.50;1152.00;;;;;;5065864;28;20033;-69
2021/04/23 10:24:52;;;;;;;19.73;10.02;;;512.50;1152.00;;;;;;5070054;28;20377;-68
2021/04/23 10:27:21;;;;;;;18.27;12.10;;;512.50;1126.40;;;;;;5070152;28;20030;-67
2021/04/23 10:29:50;;;;;;;11.18;6.75;;;537.70;1177.60;;;;;;5069490;28;20224;-70
2021/04/23 10:32:17;;;;;;;10.77;6.22;;;538.00;1152.00;;;;;;5070107;28;20478;-72
2021/04/23 10:34:43;;;;;;;14.65;8.60;;;538.30;1126.40;;;;;;5069906;28;20032;-74
2021/04/23 10:37:11;;;;;;;10.10;6.40;;;538.30;1126.40;;;;;;5070488;28;20032;-68
2021/04/23 10:39:40;;;;;;;18.05;9.52;;;538.40;1126.40;;;;;;5069966;28;20028;-68
2021/04/23 10:42:46;;;;;;;14.40;9.32;;;538.50;1126.40;;;;;;5070862;28;20028;-67
2021/04/23 10:45:26;;;;;;;21.85;12.95;;;538.40;1152.00;;;;;;5069754;28;20039;-68
2021/04/23 10:47:55;;;;;;;10.60;7.13;;;538.00;1126.40;;;;;;5069451;28;20040;-69
2021/04/23 10:50:27;;;;;;;11.82;7.10;;;538.20;1177.60;;;;;;5058917;28;20473;-67
2021/04/23 10:53:08;;;;;;;13.20;7.90;;;538.20;1126.40;;;;;;5046257;28;20029;-68
2021/04/23 10:55:56;;;;;;;10.45;7.30;;;538.10;1152.00;;;;;;5049603;28;20029;-68
2021/04/23 10:58:30;;;;;;;11.65;6.75;;;538.00;1177.60;;;;;;5044394;28;20024;-72
2021/04/23 11:01:02;;;;;;;10.05;5.97;;;537.60;1126.40;;;;;;5031678;28;20037;-69
2021/04/23 11:03:37;;;;;;;9.85;5.70;;;512.80;1126.40;;;;;;5033131;28;20033;-69
2021/04/23 11:06:13;;;;;;;16.45;9.15;;;512.70;1152.00;;;;;;5032304;28;20026;-68
2021/04/23 11:08:57;;;;;;;13.65;6.95;;;512.20;1100.80;;;;;;5033573;28;20093;-73
2021/04/23 11:11:23;;;;;;;8.45;5.68;;;487.10;1126.40;;;;;;5031896;28;20079;-69
2021/04/23 11:13:51;;;;;;;9.35;5.85;;;512.00;1152.00;;;;;;5033165;28;20021;-73
2021/04/23 11:16:19;;;;;;;11.75;7.90;;;512.20;1126.40;;;;;;5042341;28;20804;-69
2021/04/23 11:18:54;;;;;;;8.73;5.75;;;512.00;1177.60;;;;;;5050271;28;20104;-68
2021/04/23 11:21:26;;;;;;;11.35;5.65;;;512.20;1126.40;;;;;;5050944;28;20049;-68
2021/04/23 11:24:15;;;;;;;9.77;5.97;;;512.30;1177.60;;;;;;5048008;28;20039;-69
2021/04/23 11:29:22;;;;;;;10.82;5.13;;;512.30;1152.00;;;;;;5034140;28;20025;-68
2021/04/23 11:32:26;;;;;;;9.93;6.30;;;512.10;1177.60;;;;;;5039761;28;20492;-67
2021/04/23 11:34:56;;;;;;;10.77;6.53;;;512.20;1177.60;;;;;;5048074;28;20512;-68
2021/04/23 11:37:30;;;;;;;9.70;5.20;;;487.20;1177.60;;;;;;5049654;28;20098;-69
2021/04/23 11:40:34;;;;;;;8.82;5.40;;;512.00;1203.20;;;;;;5048881;28;20555;-70
2021/04/23 11:43:02;;;;;;;12.43;5.10;;;512.10;1177.60;;;;;;5049229;28;20051;-71
2021/04/23 11:45:30;;;;;;;11.55;6.00;;;512.10;1177.60;;;;;;5052802;28;20032;-72
2021/04/23 11:48:08;;;;;;;10.38;5.85;;;512.00;1152.00;;;;;;5050330;28;20412;-72
2021/04/23 11:50:38;;;;;;;8.50;5.22;;;512.10;1177.60;;;;;;5053718;28;20029;-71
2021/04/23 11:53:06;;;;;;;9.43;5.28;;;512.10;1203.20;;;;;;5073104;28;20036;-70
2021/04/23 11:55:37;;;;;;;10.88;6.72;;;512.40;1228.80;;;;;;5061440;28;20533;-69
2021/04/23 11:58:06;;;;;;;10.38;6.28;;;512.60;1177.60;;;;;;5055109;28;20036;-70
2021/04/23 12:00:32;;;;;;;9.65;5.13;;;512.60;1126.40;;;;;;5052732;28;20757;-70
2021/04/23 12:03:02;;;;;;;9.20;5.47;;;512.70;1177.60;;;;;;5055158;28;20462;-70
2021/04/23 12:05:47;;;;;;;8.75;5.60;;;512.80;1203.20;;;;;;5052311;28;20060;-72
2021/04/23 12:08:15;;;;;;;9.30;5.28;;;537.60;1228.80;;;;;;5053152;28;20411;-72
2021/04/23 12:10:44;;;;;;;10.80;6.10;;;537.60;1177.60;;;;;;5054351;28;20075;-70
2021/04/23 12:13:15;;;;;;;8.52;5.20;;;512.70;1152.00;;;;;;5053685;28;20027;-70
2021/04/23 12:15:42;;;;;;;11.13;5.43;;;512.70;1177.60;;;;;;5053950;28;20020;-70
2021/04/23 12:18:09;;;;;;;10.80;6.03;;;537.60;1177.60;;;;;;5054237;28;20009;-70